sensor_id;sensor_type;location;lat;lon;timestamp;P1;durP1;ratioP1;P2;durP2;ratioP2
11572;SDS011;5842;52.426;4.886;2023-06-14T00:01:44;6.40;;;4.60;;
11572;SDS011;5842;52.426;4.886;2023-06-14T00:04:13;9.70;;;4.90;;
11572;SDS011;5842;52.426;4.886;2023-06-14T00:06:42;7.97;;;4.77;;
11572;SDS011;5842;52.426;4.886;2023-06-14T00:09:10;9.77;;;5.07;;
11572;SDS011;5842;52.426;4.886;2023-06-14T00:11:37;8.17;;;5.17;;
11572;SDS011;5842;52.426;4.886;2023-06-14T00:14:05;5.77;;;4.87;;
11572;SDS011;5842;52.426;4.886;2023-06-14T00:16:32;7.00;;;4.67;;
11572;SDS011;5842;52.426;4.886;2023-06-14T00:19:00;5.53;;;4.70;;
11572;SDS011;5842;52.426;4.886;2023-06-14T00:21:31;7.97;;;5.00;;
11572;SDS011;5842;52.426;4.886;2023-06-14T00:23:58;8.90;;;4.80;;
11572;SDS011;5842;52.426;4.886;2023-06-14T00:26:25;7.40;;;5.37;;
11572;SDS011;5842;52.426;4.886;2023-06-14T00:28:53;8.23;;;4.97;;
11572;SDS011;5842;52.426;4.886;2023-06-14T00:31:21;10.70;;;5.20;;
11572;SDS011;5842;52.426;4.886;2023-06-14T00:33:51;6.93;;;4.87;;
11572;SDS011;5842;52.426;4.886;2023-06-14T00:36:18;7.30;;;4.87;;
11572;SDS011;5842;52.426;4.886;2023-06-14T00:38:46;6.73;;;4.73;;
11572;SDS011;5842;52.426;4.886;2023-06-14T00:41:14;7.13;;;4.13;;
11572;SDS011;5842;52.426;4.886;2023-06-14T00:43:41;7.33;;;4.40;;
11572;SDS011;5842;52.426;4.886;2023-06-14T00:46:08;9.40;;;4.50;;
11572;SDS011;5842;52.426;4.886;2023-06-14T00:48:35;6.20;;;4.47;;
11572;SDS011;5842;52.426;4.886;2023-06-14T00:51:03;12.73;;;4.20;;
11572;SDS011;5842;52.426;4.886;2023-06-14T00:53:30;7.60;;;4.50;;
11572;SDS011;5842;52.426;4.886;2023-06-14T00:56:00;8.57;;;4.10;;
11572;SDS011;5842;52.426;4.886;2023-06-14T00:58:28;4.87;;;3.97;;
11572;SDS011;5842;52.426;4.886;2023-06-14T01:00:55;6.73;;;4.20;;
11572;SDS011;5842;52.426;4.886;2023-06-14T01:03:23;6.00;;;4.17;;
11572;SDS011;5842;52.426;4.886;2023-06-14T01:05:50;5.97;;;3.93;;
11572;SDS011;5842;52.426;4.886;2023-06-14T01:08:28;6.33;;;4.10;;
11572;SDS011;5842;52.426;4.886;2023-06-14T01:11:07;7.47;;;4.17;;
11572;SDS011;5842;52.426;4.886;2023-06-14T01:13:37;6.83;;;3.70;;
11572;SDS011;5842;52.426;4.886;2023-06-14T01:16:07;8.37;;;4.30;;
11572;SDS011;5842;52.426;4.886;2023-06-14T01:18:35;6.63;;;4.27;;
11572;SDS011;5842;52.426;4.886;2023-06-14T01:21:02;5.37;;;4.03;;
11572;SDS011;5842;52.426;4.886;2023-06-14T01:23:32;8.43;;;4.00;;
11572;SDS011;5842;52.426;4.886;2023-06-14T01:25:59;5.33;;;3.83;;
11572;SDS011;5842;52.426;4.886;2023-06-14T01:28:28;8.57;;;4.00;;
11572;SDS011;5842;52.426;4.886;2023-06-14T01:30:59;5.20;;;3.67;;
11572;SDS011;5842;52.426;4.886;2023-06-14T01:33:29;10.33;;;4.20;;
11572;SDS011;5842;52.426;4.886;2023-06-14T01:35:58;8.90;;;4.07;;
11572;SDS011;5842;52.426;4.886;2023-06-14T01:38:26;10.53;;;4.17;;
11572;SDS011;5842;52.426;4.886;2023-06-14T01:40:56;5.87;;;3.67;;
11572;SDS011;5842;52.426;4.886;2023-06-14T01:43:25;4.93;;;3.87;;
11572;SDS011;5842;52.426;4.886;2023-06-14T01:45:53;8.40;;;3.93;;
11572;SDS011;5842;52.426;4.886;2023-06-14T01:48:21;7.63;;;3.70;;
11572;SDS011;5842;52.426;4.886;2023-06-14T01:50:49;6.03;;;3.80;;
11572;SDS011;5842;52.426;4.886;2023-06-14T01:53:16;4.47;;;3.80;;
11572;SDS011;5842;52.426;4.886;2023-06-14T01:55:43;9.13;;;4.13;;
11572;SDS011;5842;52.426;4.886;2023-06-14T01:58:15;9.17;;;4.20;;
11572;SDS011;5842;52.426;4.886;2023-06-14T02:00:42;6.07;;;3.80;;
11572;SDS011;5842;52.426;4.886;2023-06-14T02:03:10;5.70;;;3.97;;
11572;SDS011;5842;52.426;4.886;2023-06-14T02:05:38;9.30;;;4.27;;
11572;SDS011;5842;52.426;4.886;2023-06-14T02:08:05;6.73;;;3.90;;
11572;SDS011;5842;52.426;4.886;2023-06-14T02:10:33;8.33;;;4.20;;
11572;SDS011;5842;52.426;4.886;2023-06-14T02:13:00;6.50;;;4.10;;
11572;SDS011;5842;52.426;4.886;2023-06-14T02:15:28;6.60;;;3.83;;
11572;SDS011;5842;52.426;4.886;2023-06-14T02:17:59;6.83;;;4.30;;
11572;SDS011;5842;52.426;4.886;2023-06-14T02:20:27;10.13;;;4.20;;
11572;SDS011;5842;52.426;4.886;2023-06-14T02:22:54;4.87;;;3.80;;
11572;SDS011;5842;52.426;4.886;2023-06-14T02:25:21;7.83;;;4.47;;
11572;SDS011;5842;52.426;4.886;2023-06-14T02:27:48;5.70;;;3.70;;
11572;SDS011;5842;52.426;4.886;2023-06-14T02:30:15;7.30;;;3.90;;
11572;SDS011;5842;52.426;4.886;2023-06-14T02:32:44;7.07;;;4.37;;
11572;SDS011;5842;52.426;4.886;2023-06-14T02:35:13;5.30;;;3.90;;
11572;SDS011;5842;52.426;4.886;2023-06-14T02:37:40;7.13;;;4.43;;
11572;SDS011;5842;52.426;4.886;2023-06-14T02:40:08;10.13;;;4.03;;
11572;SDS011;5842;52.426;4.886;2023-06-14T02:42:36;9.27;;;4.10;;
11572;SDS011;5842;52.426;4.886;2023-06-14T02:45:03;10.23;;;4.17;;
11572;SDS011;5842;52.426;4.886;2023-06-14T02:47:31;6.67;;;4.13;;
11572;SDS011;5842;52.426;4.886;2023-06-14T02:49:59;8.27;;;4.03;;
11572;SDS011;5842;52.426;4.886;2023-06-14T02:52:27;8.17;;;4.00;;
11572;SDS011;5842;52.426;4.886;2023-06-14T02:54:55;7.80;;;4.27;;
11572;SDS011;5842;52.426;4.886;2023-06-14T02:57:25;7.80;;;4.17;;
11572;SDS011;5842;52.426;4.886;2023-06-14T02:59:52;6.87;;;4.13;;
11572;SDS011;5842;52.426;4.886;2023-06-14T03:02:19;7.83;;;4.03;;
11572;SDS011;5842;52.426;4.886;2023-06-14T03:04:46;5.63;;;4.20;;
11572;SDS011;5842;52.426;4.886;2023-06-14T03:07:15;5.73;;;4.20;;
11572;SDS011;5842;52.426;4.886;2023-06-14T03:09:45;6.13;;;3.80;;
11572;SDS011;5842;52.426;4.886;2023-06-14T03:12:12;8.03;;;3.90;;
11572;SDS011;5842;52.426;4.886;2023-06-14T03:14:40;6.37;;;3.80;;
11572;SDS011;5842;52.426;4.886;2023-06-14T03:17:08;7.27;;;3.77;;
11572;SDS011;5842;52.426;4.886;2023-06-14T03:19:36;5.27;;;3.60;;
11572;SDS011;5842;52.426;4.886;2023-06-14T03:22:03;5.17;;;3.60;;
11572;SDS011;5842;52.426;4.886;2023-06-14T03:24:34;6.83;;;3.97;;
11572;SDS011;5842;52.426;4.886;2023-06-14T03:27:01;5.87;;;3.63;;
11572;SDS011;5842;52.426;4.886;2023-06-14T03:29:29;6.07;;;3.80;;
11572;SDS011;5842;52.426;4.886;2023-06-14T03:31:56;6.47;;;3.77;;
11572;SDS011;5842;52.426;4.886;2023-06-14T03:34:24;7.17;;;3.77;;
11572;SDS011;5842;52.426;4.886;2023-06-14T03:36:52;5.13;;;3.67;;
11572;SDS011;5842;52.426;4.886;2023-06-14T03:39:19;7.53;;;3.70;;
11572;SDS011;5842;52.426;4.886;2023-06-14T03:41:48;4.60;;;3.50;;
11572;SDS011;5842;52.426;4.886;2023-06-14T03:44:16;4.50;;;3.73;;
11572;SDS011;5842;52.426;4.886;2023-06-14T03:46:44;4.70;;;3.27;;
11572;SDS011;5842;52.426;4.886;2023-06-14T03:49:11;7.87;;;3.93;;
11572;SDS011;5842;52.426;4.886;2023-06-14T03:51:38;5.97;;;3.53;;
11572;SDS011;5842;52.426;4.886;2023-06-14T03:54:06;7.57;;;3.93;;
11572;SDS011;5842;52.426;4.886;2023-06-14T03:56:33;4.77;;;3.50;;
11572;SDS011;5842;52.426;4.886;2023-06-14T03:59:04;5.30;;;3.90;;
11572;SDS011;5842;52.426;4.886;2023-06-14T04:01:31;5.03;;;3.70;;
11572;SDS011;5842;52.426;4.886;2023-06-14T04:03:58;7.33;;;3.60;;
11572;SDS011;5842;52.426;4.886;2023-06-14T04:06:26;8.83;;;3.70;;
11572;SDS011;5842;52.426;4.886;2023-06-14T04:08:57;5.10;;;3.50;;
11572;SDS011;5842;52.426;4.886;2023-06-14T04:11:27;4.27;;;3.40;;
11572;SDS011;5842;52.426;4.886;2023-06-14T04:13:54;4.93;;;3.30;;
11572;SDS011;5842;52.426;4.886;2023-06-14T04:16:24;6.20;;;3.80;;
11572;SDS011;5842;52.426;4.886;2023-06-14T04:18:51;8.03;;;3.73;;
11572;SDS011;5842;52.426;4.886;2023-06-14T04:21:18;7.90;;;3.63;;
11572;SDS011;5842;52.426;4.886;2023-06-14T04:23:46;8.13;;;3.23;;
11572;SDS011;5842;52.426;4.886;2023-06-14T04:26:13;6.63;;;4.27;;
11572;SDS011;5842;52.426;4.886;2023-06-14T04:28:41;8.30;;;3.33;;
11572;SDS011;5842;52.426;4.886;2023-06-14T04:31:12;4.20;;;3.57;;
11572;SDS011;5842;52.426;4.886;2023-06-14T04:33:40;7.20;;;3.43;;
11572;SDS011;5842;52.426;4.886;2023-06-14T04:36:11;4.13;;;3.20;;
11572;SDS011;5842;52.426;4.886;2023-06-14T04:38:38;5.50;;;3.50;;
11572;SDS011;5842;52.426;4.886;2023-06-14T04:41:06;6.60;;;3.60;;
11572;SDS011;5842;52.426;4.886;2023-06-14T04:43:36;8.10;;;3.63;;
11572;SDS011;5842;52.426;4.886;2023-06-14T04:46:04;4.50;;;3.20;;
11572;SDS011;5842;52.426;4.886;2023-06-14T04:48:34;10.87;;;3.33;;
11572;SDS011;5842;52.426;4.886;2023-06-14T04:51:04;7.23;;;3.17;;
11572;SDS011;5842;52.426;4.886;2023-06-14T04:53:31;5.93;;;3.27;;
11572;SDS011;5842;52.426;4.886;2023-06-14T04:55:59;6.40;;;3.27;;
11572;SDS011;5842;52.426;4.886;2023-06-14T04:58:28;5.32;;;2.95;;
11572;SDS011;5842;52.426;4.886;2023-06-14T05:00:55;4.85;;;3.17;;
11572;SDS011;5842;52.426;4.886;2023-06-14T05:03:24;6.65;;;3.22;;
11572;SDS011;5842;52.426;4.886;2023-06-14T05:05:52;4.72;;;3.10;;
11572;SDS011;5842;52.426;4.886;2023-06-14T05:08:23;4.75;;;3.10;;
11572;SDS011;5842;52.426;4.886;2023-06-14T05:10:51;2.95;;;2.72;;
11572;SDS011;5842;52.426;4.886;2023-06-14T05:13:18;4.10;;;2.75;;
11572;SDS011;5842;52.426;4.886;2023-06-14T05:15:47;6.68;;;3.15;;
11572;SDS011;5842;52.426;4.886;2023-06-14T05:18:14;4.43;;;3.00;;
11572;SDS011;5842;52.426;4.886;2023-06-14T05:20:41;5.05;;;3.28;;
11572;SDS011;5842;52.426;4.886;2023-06-14T05:23:08;5.97;;;3.28;;
11572;SDS011;5842;52.426;4.886;2023-06-14T05:35:31;5.70;;;3.13;;
11572;SDS011;5842;52.426;4.886;2023-06-14T05:37:58;10.15;;;3.30;;
11572;SDS011;5842;52.426;4.886;2023-06-14T05:42:54;5.28;;;3.28;;
11572;SDS011;5842;52.426;4.886;2023-06-14T05:45:21;4.28;;;3.40;;
11572;SDS011;5842;52.426;4.886;2023-06-14T05:47:49;5.35;;;3.30;;
11572;SDS011;5842;52.426;4.886;2023-06-14T05:50:16;6.15;;;3.40;;
11572;SDS011;5842;52.426;4.886;2023-06-14T05:52:43;4.85;;;3.10;;
11572;SDS011;5842;52.426;4.886;2023-06-14T05:55:10;6.78;;;3.33;;
11572;SDS011;5842;52.426;4.886;2023-06-14T05:57:38;8.00;;;3.33;;
11572;SDS011;5842;52.426;4.886;2023-06-14T06:00:07;7.28;;;3.58;;
11572;SDS011;5842;52.426;4.886;2023-06-14T06:02:39;7.75;;;3.53;;
11572;SDS011;5842;52.426;4.886;2023-06-14T06:22:20;6.40;;;3.60;;
11572;SDS011;5842;52.426;4.886;2023-06-14T06:24:47;3.65;;;3.35;;
11572;SDS011;5842;52.426;4.886;2023-06-14T06:27:14;6.25;;;3.40;;
11572;SDS011;5842;52.426;4.886;2023-06-14T06:29:43;3.80;;;3.35;;
11572;SDS011;5842;52.426;4.886;2023-06-14T06:32:11;7.28;;;3.50;;
11572;SDS011;5842;52.426;4.886;2023-06-14T06:34:39;4.47;;;3.60;;
11572;SDS011;5842;52.426;4.886;2023-06-14T06:42:00;9.15;;;3.78;;
11572;SDS011;5842;52.426;4.886;2023-06-14T06:44:27;6.28;;;4.10;;
11572;SDS011;5842;52.426;4.886;2023-06-14T06:46:55;7.57;;;3.80;;
11572;SDS011;5842;52.426;4.886;2023-06-14T06:49:22;6.80;;;3.97;;
11572;SDS011;5842;52.426;4.886;2023-06-14T06:54:28;5.63;;;3.88;;
11572;SDS011;5842;52.426;4.886;2023-06-14T06:56:57;6.67;;;3.77;;
11572;SDS011;5842;52.426;4.886;2023-06-14T06:59:25;5.10;;;3.77;;
11572;SDS011;5842;52.426;4.886;2023-06-14T07:01:53;6.80;;;3.67;;
11572;SDS011;5842;52.426;4.886;2023-06-14T07:06:47;7.10;;;4.07;;
11572;SDS011;5842;52.426;4.886;2023-06-14T07:09:16;5.72;;;3.85;;
11572;SDS011;5842;52.426;4.886;2023-06-14T07:11:45;7.10;;;3.60;;
11572;SDS011;5842;52.426;4.886;2023-06-14T07:14:13;9.27;;;3.80;;
11572;SDS011;5842;52.426;4.886;2023-06-14T07:16:40;5.70;;;3.70;;
11572;SDS011;5842;52.426;4.886;2023-06-14T08:34:48;7.35;;;3.80;;
11572;SDS011;5842;52.426;4.886;2023-06-14T08:37:15;4.25;;;3.15;;
11572;SDS011;5842;52.426;4.886;2023-06-14T08:39:42;3.92;;;3.38;;
11572;SDS011;5842;52.426;4.886;2023-06-14T08:42:10;4.90;;;3.40;;
11572;SDS011;5842;52.426;4.886;2023-06-14T08:44:38;3.58;;;3.28;;
11572;SDS011;5842;52.426;4.886;2023-06-14T08:47:09;3.40;;;3.10;;
11572;SDS011;5842;52.426;4.886;2023-06-14T08:49:38;5.23;;;3.40;;
11572;SDS011;5842;52.426;4.886;2023-06-14T08:52:12;4.35;;;3.30;;
11572;SDS011;5842;52.426;4.886;2023-06-14T08:54:43;4.80;;;3.17;;
11572;SDS011;5842;52.426;4.886;2023-06-14T08:59:45;5.45;;;3.03;;
11572;SDS011;5842;52.426;4.886;2023-06-14T09:02:19;3.90;;;3.10;;
11572;SDS011;5842;52.426;4.886;2023-06-14T09:04:47;3.83;;;3.10;;
11572;SDS011;5842;52.426;4.886;2023-06-14T09:07:15;4.45;;;2.90;;
11572;SDS011;5842;52.426;4.886;2023-06-14T09:09:43;7.03;;;3.13;;
11572;SDS011;5842;52.426;4.886;2023-06-14T09:12:10;6.93;;;3.10;;
11572;SDS011;5842;52.426;4.886;2023-06-14T09:14:38;4.55;;;2.97;;
11572;SDS011;5842;52.426;4.886;2023-06-14T09:17:07;4.80;;;2.65;;
11572;SDS011;5842;52.426;4.886;2023-06-14T09:19:36;4.47;;;3.00;;
11572;SDS011;5842;52.426;4.886;2023-06-14T09:22:04;4.28;;;2.90;;
11572;SDS011;5842;52.426;4.886;2023-06-14T09:24:36;6.40;;;2.88;;
11572;SDS011;5842;52.426;4.886;2023-06-14T09:27:04;5.18;;;3.03;;
11572;SDS011;5842;52.426;4.886;2023-06-14T09:29:31;4.43;;;2.75;;
11572;SDS011;5842;52.426;4.886;2023-06-14T09:31:58;3.92;;;2.85;;
11572;SDS011;5842;52.426;4.886;2023-06-14T09:34:25;5.00;;;2.70;;
11572;SDS011;5842;52.426;4.886;2023-06-14T09:36:54;4.40;;;2.80;;
11572;SDS011;5842;52.426;4.886;2023-06-14T09:39:21;5.20;;;2.60;;
11572;SDS011;5842;52.426;4.886;2023-06-14T09:41:50;4.03;;;2.50;;
11572;SDS011;5842;52.426;4.886;2023-06-14T09:44:17;3.42;;;2.80;;
11572;SDS011;5842;52.426;4.886;2023-06-14T09:46:47;3.67;;;2.58;;
11572;SDS011;5842;52.426;4.886;2023-06-14T09:49:15;4.88;;;2.95;;
11572;SDS011;5842;52.426;4.886;2023-06-14T09:51:43;5.72;;;2.78;;
11572;SDS011;5842;52.426;4.886;2023-06-14T09:54:14;3.65;;;2.70;;
11572;SDS011;5842;52.426;4.886;2023-06-14T09:56:44;4.70;;;2.70;;
11572;SDS011;5842;52.426;4.886;2023-06-14T09:59:12;2.63;;;2.42;;
11572;SDS011;5842;52.426;4.886;2023-06-14T10:01:41;4.20;;;2.70;;
11572;SDS011;5842;52.426;4.886;2023-06-14T10:04:09;3.75;;;2.67;;
11572;SDS011;5842;52.426;4.886;2023-06-14T10:06:37;4.28;;;2.65;;
11572;SDS011;5842;52.426;4.886;2023-06-14T10:09:07;3.95;;;2.60;;
11572;SDS011;5842;52.426;4.886;2023-06-14T10:11:37;4.45;;;2.97;;
11572;SDS011;5842;52.426;4.886;2023-06-14T10:14:08;4.80;;;2.53;;
11572;SDS011;5842;52.426;4.886;2023-06-14T10:16:39;3.13;;;2.50;;
11572;SDS011;5842;52.426;4.886;2023-06-14T10:19:17;3.88;;;2.65;;
11572;SDS011;5842;52.426;4.886;2023-06-14T10:21:49;2.83;;;2.50;;
11572;SDS011;5842;52.426;4.886;2023-06-14T10:24:23;4.38;;;2.75;;
11572;SDS011;5842;52.426;4.886;2023-06-14T10:26:58;3.38;;;2.80;;
11572;SDS011;5842;52.426;4.886;2023-06-14T10:29:26;4.28;;;2.97;;
11572;SDS011;5842;52.426;4.886;2023-06-14T10:31:57;3.30;;;2.97;;
11572;SDS011;5842;52.426;4.886;2023-06-14T10:34:25;3.30;;;2.53;;
11572;SDS011;5842;52.426;4.886;2023-06-14T10:37:00;4.65;;;2.80;;
11572;SDS011;5842;52.426;4.886;2023-06-14T10:39:29;3.15;;;2.63;;
11572;SDS011;5842;52.426;4.886;2023-06-14T10:41:58;6.20;;;2.55;;
11572;SDS011;5842;52.426;4.886;2023-06-14T10:47:20;3.50;;;2.45;;
11572;SDS011;5842;52.426;4.886;2023-06-14T10:49:50;4.25;;;2.90;;
11572;SDS011;5842;52.426;4.886;2023-06-14T10:52:24;6.15;;;2.85;;
11572;SDS011;5842;52.426;4.886;2023-06-14T10:54:58;4.65;;;2.90;;
11572;SDS011;5842;52.426;4.886;2023-06-14T10:57:38;3.10;;;2.80;;
11572;SDS011;5842;52.426;4.886;2023-06-14T11:00:06;3.80;;;2.70;;
11572;SDS011;5842;52.426;4.886;2023-06-14T11:02:46;4.70;;;2.78;;
11572;SDS011;5842;52.426;4.886;2023-06-14T11:05:41;3.63;;;2.65;;
11572;SDS011;5842;52.426;4.886;2023-06-14T11:08:18;3.05;;;2.53;;
11572;SDS011;5842;52.426;4.886;2023-06-14T11:10:59;4.20;;;2.75;;
11572;SDS011;5842;52.426;4.886;2023-06-14T11:13:28;2.80;;;2.60;;
11572;SDS011;5842;52.426;4.886;2023-06-14T11:15:55;5.65;;;2.78;;
11572;SDS011;5842;52.426;4.886;2023-06-14T11:18:23;4.65;;;2.80;;
11572;SDS011;5842;52.426;4.886;2023-06-14T11:20:52;5.40;;;3.05;;
11572;SDS011;5842;52.426;4.886;2023-06-14T11:23:20;3.55;;;2.42;;
11572;SDS011;5842;52.426;4.886;2023-06-14T11:25:51;5.63;;;2.70;;
11572;SDS011;5842;52.426;4.886;2023-06-14T11:28:18;2.92;;;2.63;;
11572;SDS011;5842;52.426;4.886;2023-06-14T11:30:48;3.85;;;2.33;;
11572;SDS011;5842;52.426;4.886;2023-06-14T11:33:25;4.72;;;2.50;;
11572;SDS011;5842;52.426;4.886;2023-06-14T11:35:52;3.53;;;2.75;;
11572;SDS011;5842;52.426;4.886;2023-06-14T11:38:20;2.50;;;2.30;;
11572;SDS011;5842;52.426;4.886;2023-06-14T11:40:47;4.90;;;2.35;;
11572;SDS011;5842;52.426;4.886;2023-06-14T11:43:14;4.85;;;2.58;;
11572;SDS011;5842;52.426;4.886;2023-06-14T11:45:42;3.20;;;2.30;;
11572;SDS011;5842;52.426;4.886;2023-06-14T11:48:11;3.13;;;2.10;;
11572;SDS011;5842;52.426;4.886;2023-06-14T11:50:38;3.50;;;2.10;;
11572;SDS011;5842;52.426;4.886;2023-06-14T11:53:06;3.72;;;2.40;;
11572;SDS011;5842;52.426;4.886;2023-06-14T11:55:35;3.83;;;2.70;;
11572;SDS011;5842;52.426;4.886;2023-06-14T11:58:04;4.93;;;2.50;;
11572;SDS011;5842;52.426;4.886;2023-06-14T12:00:31;4.15;;;2.50;;
11572;SDS011;5842;52.426;4.886;2023-06-14T12:02:58;2.97;;;2.38;;
11572;SDS011;5842;52.426;4.886;2023-06-14T12:05:27;3.20;;;2.50;;
11572;SDS011;5842;52.426;4.886;2023-06-14T12:07:58;3.67;;;2.60;;
11572;SDS011;5842;52.426;4.886;2023-06-14T12:10:26;5.00;;;2.40;;
11572;SDS011;5842;52.426;4.886;2023-06-14T12:12:56;3.10;;;2.33;;
11572;SDS011;5842;52.426;4.886;2023-06-14T12:15:24;4.50;;;2.70;;
11572;SDS011;5842;52.426;4.886;2023-06-14T12:17:54;4.22;;;2.65;;
11572;SDS011;5842;52.426;4.886;2023-06-14T12:20:28;5.82;;;2.50;;
11572;SDS011;5842;52.426;4.886;2023-06-14T12:22:58;5.45;;;2.83;;
11572;SDS011;5842;52.426;4.886;2023-06-14T12:25:28;3.55;;;2.40;;
11572;SDS011;5842;52.426;4.886;2023-06-14T12:27:57;3.13;;;2.50;;
11572;SDS011;5842;52.426;4.886;2023-06-14T12:30:25;3.97;;;2.53;;
11572;SDS011;5842;52.426;4.886;2023-06-14T12:32:52;4.85;;;2.60;;
11572;SDS011;5842;52.426;4.886;2023-06-14T12:35:19;3.13;;;2.33;;
11572;SDS011;5842;52.426;4.886;2023-06-14T12:37:48;3.55;;;2.58;;
11572;SDS011;5842;52.426;4.886;2023-06-14T12:40:15;2.63;;;2.40;;
11572;SDS011;5842;52.426;4.886;2023-06-14T12:42:42;4.65;;;2.50;;
11572;SDS011;5842;52.426;4.886;2023-06-14T12:45:12;3.72;;;2.53;;
11572;SDS011;5842;52.426;4.886;2023-06-14T12:47:39;3.72;;;2.70;;
11572;SDS011;5842;52.426;4.886;2023-06-14T12:50:07;2.92;;;2.30;;
11572;SDS011;5842;52.426;4.886;2023-06-14T12:52:35;4.82;;;2.15;;
11572;SDS011;5842;52.426;4.886;2023-06-14T12:55:04;5.15;;;2.30;;
11572;SDS011;5842;52.426;4.886;2023-06-14T12:57:31;4.18;;;2.17;;
11572;SDS011;5842;52.426;4.886;2023-06-14T13:00:01;3.33;;;2.20;;
11572;SDS011;5842;52.426;4.886;2023-06-14T13:02:30;3.72;;;2.10;;
11572;SDS011;5842;52.426;4.886;2023-06-14T13:04:57;4.45;;;2.33;;
11572;SDS011;5842;52.426;4.886;2023-06-14T13:07:25;3.90;;;2.53;;
11572;SDS011;5842;52.426;4.886;2023-06-14T13:09:52;3.17;;;2.40;;
11572;SDS011;5842;52.426;4.886;2023-06-14T13:12:21;3.60;;;2.47;;
11572;SDS011;5842;52.426;4.886;2023-06-14T13:14:48;4.60;;;2.13;;
11572;SDS011;5842;52.426;4.886;2023-06-14T13:17:15;3.22;;;2.22;;
11572;SDS011;5842;52.426;4.886;2023-06-14T13:19:42;3.92;;;2.10;;
11572;SDS011;5842;52.426;4.886;2023-06-14T13:22:09;4.00;;;2.30;;
11572;SDS011;5842;52.426;4.886;2023-06-14T13:24:36;2.50;;;2.30;;
11572;SDS011;5842;52.426;4.886;2023-06-14T13:27:04;3.30;;;2.50;;
11572;SDS011;5842;52.426;4.886;2023-06-14T13:29:33;3.20;;;2.08;;
11572;SDS011;5842;52.426;4.886;2023-06-14T13:32:01;4.45;;;2.50;;
11572;SDS011;5842;52.426;4.886;2023-06-14T13:34:28;4.28;;;2.20;;
11572;SDS011;5842;52.426;4.886;2023-06-14T13:36:55;4.85;;;2.25;;
11572;SDS011;5842;52.426;4.886;2023-06-14T13:39:24;4.78;;;2.22;;
11572;SDS011;5842;52.426;4.886;2023-06-14T13:41:51;6.70;;;2.47;;
11572;SDS011;5842;52.426;4.886;2023-06-14T13:44:19;8.02;;;2.38;;
11572;SDS011;5842;52.426;4.886;2023-06-14T13:46:48;3.00;;;2.50;;
11572;SDS011;5842;52.426;4.886;2023-06-14T13:49:15;3.97;;;2.55;;
11572;SDS011;5842;52.426;4.886;2023-06-14T13:51:43;3.65;;;2.40;;
11572;SDS011;5842;52.426;4.886;2023-06-14T13:54:11;4.40;;;2.40;;
11572;SDS011;5842;52.426;4.886;2023-06-14T13:56:40;3.83;;;2.30;;
11572;SDS011;5842;52.426;4.886;2023-06-14T13:59:07;3.10;;;2.25;;
11572;SDS011;5842;52.426;4.886;2023-06-14T14:01:34;3.55;;;2.30;;
11572;SDS011;5842;52.426;4.886;2023-06-14T14:04:03;5.47;;;2.20;;
11572;SDS011;5842;52.426;4.886;2023-06-14T14:06:30;4.25;;;2.30;;
11572;SDS011;5842;52.426;4.886;2023-06-14T14:08:57;2.45;;;2.20;;
11572;SDS011;5842;52.426;4.886;2023-06-14T14:11:25;2.70;;;2.40;;
11572;SDS011;5842;52.426;4.886;2023-06-14T14:13:53;3.20;;;2.55;;
11572;SDS011;5842;52.426;4.886;2023-06-14T14:16:20;6.40;;;2.25;;
11572;SDS011;5842;52.426;4.886;2023-06-14T14:18:48;6.25;;;2.28;;
11572;SDS011;5842;52.426;4.886;2023-06-14T14:21:16;4.80;;;2.20;;
11572;SDS011;5842;52.426;4.886;2023-06-14T14:23:44;4.50;;;2.20;;
11572;SDS011;5842;52.426;4.886;2023-06-14T14:26:11;3.03;;;2.50;;
11572;SDS011;5842;52.426;4.886;2023-06-14T14:28:38;4.18;;;2.20;;
11572;SDS011;5842;52.426;4.886;2023-06-14T14:31:05;2.45;;;2.25;;
11572;SDS011;5842;52.426;4.886;2023-06-14T14:33:32;4.43;;;2.45;;
11572;SDS011;5842;52.426;4.886;2023-06-14T14:36:00;2.78;;;2.13;;
11572;SDS011;5842;52.426;4.886;2023-06-14T14:38:33;6.00;;;2.28;;
11572;SDS011;5842;52.426;4.886;2023-06-14T14:41:00;4.60;;;2.22;;
11572;SDS011;5842;52.426;4.886;2023-06-14T14:43:28;4.78;;;2.40;;
11572;SDS011;5842;52.426;4.886;2023-06-14T14:45:57;4.25;;;2.28;;
11572;SDS011;5842;52.426;4.886;2023-06-14T14:48:24;4.60;;;2.10;;
11572;SDS011;5842;52.426;4.886;2023-06-14T14:50:51;2.40;;;2.08;;
11572;SDS011;5842;52.426;4.886;2023-06-14T14:53:18;4.82;;;2.47;;
11572;SDS011;5842;52.426;4.886;2023-06-14T14:55:47;3.38;;;2.42;;
11572;SDS011;5842;52.426;4.886;2023-06-14T14:58:15;2.53;;;2.30;;
11572;SDS011;5842;52.426;4.886;2023-06-14T15:00:46;3.75;;;2.20;;
11572;SDS011;5842;52.426;4.886;2023-06-14T15:03:14;3.85;;;2.30;;
11572;SDS011;5842;52.426;4.886;2023-06-14T15:05:41;2.90;;;2.30;;
11572;SDS011;5842;52.426;4.886;2023-06-14T15:08:08;5.30;;;2.17;;
11572;SDS011;5842;52.426;4.886;2023-06-14T15:10:37;4.70;;;2.15;;
11572;SDS011;5842;52.426;4.886;2023-06-14T15:13:08;3.33;;;2.15;;
11572;SDS011;5842;52.426;4.886;2023-06-14T15:15:35;6.22;;;2.40;;
11572;SDS011;5842;52.426;4.886;2023-06-14T15:18:02;5.85;;;2.17;;
11572;SDS011;5842;52.426;4.886;2023-06-14T15:20:30;2.58;;;2.17;;
11572;SDS011;5842;52.426;4.886;2023-06-14T15:23:00;3.90;;;2.22;;
11572;SDS011;5842;52.426;4.886;2023-06-14T15:25:27;4.38;;;2.30;;
11572;SDS011;5842;52.426;4.886;2023-06-14T15:27:55;5.03;;;2.22;;
11572;SDS011;5842;52.426;4.886;2023-06-14T15:30:23;3.80;;;2.40;;
11572;SDS011;5842;52.426;4.886;2023-06-14T15:32:51;2.78;;;2.17;;
11572;SDS011;5842;52.426;4.886;2023-06-14T15:35:18;3.40;;;2.20;;
11572;SDS011;5842;52.426;4.886;2023-06-14T15:37:46;4.55;;;2.67;;
11572;SDS011;5842;52.426;4.886;2023-06-14T15:40:15;5.25;;;2.40;;
11572;SDS011;5842;52.426;4.886;2023-06-14T15:42:42;2.67;;;2.47;;
11572;SDS011;5842;52.426;4.886;2023-06-14T15:45:10;3.78;;;2.40;;
11572;SDS011;5842;52.426;4.886;2023-06-14T15:47:41;4.55;;;2.35;;
11572;SDS011;5842;52.426;4.886;2023-06-14T15:50:08;4.05;;;2.53;;
11572;SDS011;5842;52.426;4.886;2023-06-14T15:52:37;2.58;;;2.38;;
11572;SDS011;5842;52.426;4.886;2023-06-14T15:55:04;4.55;;;2.47;;
11572;SDS011;5842;52.426;4.886;2023-06-14T15:57:32;2.53;;;2.30;;
11572;SDS011;5842;52.426;4.886;2023-06-14T15:59:59;5.75;;;2.40;;
11572;SDS011;5842;52.426;4.886;2023-06-14T16:02:27;6.30;;;2.47;;
11572;SDS011;5842;52.426;4.886;2023-06-14T16:04:56;3.80;;;2.45;;
11572;SDS011;5842;52.426;4.886;2023-06-14T16:07:23;4.00;;;2.60;;
11572;SDS011;5842;52.426;4.886;2023-06-14T16:09:50;3.30;;;2.30;;
11572;SDS011;5842;52.426;4.886;2023-06-14T16:12:17;3.85;;;2.38;;
11572;SDS011;5842;52.426;4.886;2023-06-14T16:14:46;7.25;;;2.55;;
11572;SDS011;5842;52.426;4.886;2023-06-14T16:17:13;4.38;;;2.50;;
11572;SDS011;5842;52.426;4.886;2023-06-14T16:19:40;3.13;;;2.35;;
11572;SDS011;5842;52.426;4.886;2023-06-14T16:22:09;3.00;;;2.70;;
11572;SDS011;5842;52.426;4.886;2023-06-14T16:24:36;2.78;;;2.30;;
11572;SDS011;5842;52.426;4.886;2023-06-14T16:27:04;4.00;;;2.85;;
11572;SDS011;5842;52.426;4.886;2023-06-14T16:29:34;2.88;;;2.50;;
11572;SDS011;5842;52.426;4.886;2023-06-14T16:32:01;2.83;;;2.22;;
11572;SDS011;5842;52.426;4.886;2023-06-14T16:34:29;2.53;;;2.33;;
11572;SDS011;5842;52.426;4.886;2023-06-14T16:36:58;5.40;;;2.30;;
11572;SDS011;5842;52.426;4.886;2023-06-14T16:39:26;3.15;;;2.40;;
11572;SDS011;5842;52.426;4.886;2023-06-14T16:41:54;2.78;;;2.20;;
11572;SDS011;5842;52.426;4.886;2023-06-14T16:44:21;2.50;;;2.30;;
11572;SDS011;5842;52.426;4.886;2023-06-14T16:46:48;3.63;;;2.40;;
11572;SDS011;5842;52.426;4.886;2023-06-14T16:49:15;6.18;;;2.40;;
11572;SDS011;5842;52.426;4.886;2023-06-14T16:51:42;3.70;;;2.40;;
11572;SDS011;5842;52.426;4.886;2023-06-14T16:54:09;3.42;;;2.60;;
11572;SDS011;5842;52.426;4.886;2023-06-14T16:56:38;2.55;;;2.35;;
11572;SDS011;5842;52.426;4.886;2023-06-14T16:59:05;2.53;;;2.33;;
11572;SDS011;5842;52.426;4.886;2023-06-14T17:01:33;3.35;;;2.67;;
11572;SDS011;5842;52.426;4.886;2023-06-14T17:04:00;4.10;;;2.45;;
11572;SDS011;5842;52.426;4.886;2023-06-14T17:06:27;4.55;;;2.30;;
11572;SDS011;5842;52.426;4.886;2023-06-14T17:08:54;5.10;;;2.40;;